sensor_id;sensor_type;location;lat;lon;timestamp;pressure;altitude;pressure_sealevel;temperature;humidity
7441;BME280;29616;51.950;8.572;2023-09-12T00:01:09;99697.84;;;21.49;100.00
7441;BME280;29616;51.950;8.572;2023-09-12T00:03:42;99710.13;;;21.59;100.00
7441;BME280;29616;51.950;8.572;2023-09-12T00:06:12;99706.34;;;21.54;100.00
7441;BME280;29616;51.950;8.572;2023-09-12T00:08:41;99706.59;;;21.52;100.00
7441;BME280;29616;51.950;8.572;2023-09-12T00:11:10;99695.53;;;21.46;100.00
7441;BME280;29616;51.950;8.572;2023-09-12T00:13:40;99666.28;;;21.25;100.00
7441;BME280;29616;51.950;8.572;2023-09-12T00:16:11;99696.09;;;21.36;100.00
7441;BME280;29616;51.950;8.572;2023-09-12T00:18:42;99698.41;;;21.39;100.00
7441;BME280;29616;51.950;8.572;2023-09-12T00:21:11;99691.00;;;21.33;100.00
7441;BME280;29616;51.950;8.572;2023-09-12T00:23:41;99689.53;;;21.31;100.00
7441;BME280;29616;51.950;8.572;2023-09-12T00:26:11;99676.66;;;21.18;100.00
7441;BME280;29616;51.950;8.572;2023-09-12T00:28:42;99668.84;;;21.08;100.00
7441;BME280;29616;51.950;8.572;2023-09-12T00:31:12;99685.75;;;21.07;100.00
7441;BME280;29616;51.950;8.572;2023-09-12T00:33:44;99676.38;;;21.01;100.00
7441;BME280;29616;51.950;8.572;2023-09-12T00:36:13;99663.94;;;20.86;100.00
7441;BME280;29616;51.950;8.572;2023-09-12T00:38:43;99657.94;;;20.89;100.00
7441;BME280;29616;51.950;8.572;2023-09-12T00:41:13;99668.78;;;20.90;100.00
7441;BME280;29616;51.950;8.572;2023-09-12T00:43:42;99675.75;;;20.99;100.00
7441;BME280;29616;51.950;8.572;2023-09-12T00:46:12;99685.44;;;21.33;100.00
7441;BME280;29616;51.950;8.572;2023-09-12T00:48:45;99681.41;;;21.47;100.00
7441;BME280;29616;51.950;8.572;2023-09-12T00:51:15;99674.31;;;21.33;100.00
7441;BME280;29616;51.950;8.572;2023-09-12T00:53:48;99681.19;;;21.31;100.00
7441;BME280;29616;51.950;8.572;2023-09-12T00:56:17;99671.91;;;21.19;100.00
7441;BME280;29616;51.950;8.572;2023-09-12T00:58:47;99689.13;;;21.27;100.00
7441;BME280;29616;51.950;8.572;2023-09-12T01:01:18;99683.59;;;21.09;100.00
7441;BME280;29616;51.950;8.572;2023-09-12T01:03:49;99710.75;;;21.25;100.00
7441;BME280;29616;51.950;8.572;2023-09-12T01:06:22;99698.19;;;20.98;100.00
7441;BME280;29616;51.950;8.572;2023-09-12T01:08:55;99737.88;;;21.05;100.00
7441;BME280;29616;51.950;8.572;2023-09-12T01:11:25;99741.31;;;21.07;100.00
7441;BME280;29616;51.950;8.572;2023-09-12T01:13:54;99718.53;;;21.17;100.00
7441;BME280;29616;51.950;8.572;2023-09-12T01:16:25;99726.19;;;21.21;100.00
7441;BME280;29616;51.950;8.572;2023-09-12T01:18:57;99736.06;;;21.17;100.00
7441;BME280;29616;51.950;8.572;2023-09-12T01:22:11;99720.75;;;21.08;100.00
7441;BME280;29616;51.950;8.572;2023-09-12T01:25:39;99699.66;;;21.00;100.00
7441;BME280;29616;51.950;8.572;2023-09-12T01:28:16;99720.34;;;20.86;100.00
7441;BME280;29616;51.950;8.572;2023-09-12T01:30:49;99690.28;;;20.77;100.00
7441;BME280;29616;51.950;8.572;2023-09-12T01:33:20;99683.56;;;20.66;100.00
7441;BME280;29616;51.950;8.572;2023-09-12T01:35:52;99723.16;;;20.80;100.00
7441;BME280;29616;51.950;8.572;2023-09-12T01:38:22;99717.44;;;20.75;100.00
7441;BME280;29616;51.950;8.572;2023-09-12T01:40:53;99710.31;;;20.61;100.00
7441;BME280;29616;51.950;8.572;2023-09-12T01:43:26;99732.41;;;20.74;100.00
7441;BME280;29616;51.950;8.572;2023-09-12T01:45:58;99721.25;;;20.55;100.00
7441;BME280;29616;51.950;8.572;2023-09-12T01:48:34;99710.91;;;20.63;100.00
7441;BME280;29616;51.950;8.572;2023-09-12T01:51:07;99740.16;;;20.90;100.00
7441;BME280;29616;51.950;8.572;2023-09-12T01:53:39;99720.09;;;20.88;100.00
7441;BME280;29616;51.950;8.572;2023-09-12T01:56:09;99729.38;;;21.00;100.00
7441;BME280;29616;51.950;8.572;2023-09-12T01:58:40;99736.47;;;21.21;100.00
7441;BME280;29616;51.950;8.572;2023-09-12T02:01:11;99735.16;;;21.23;100.00
7441;BME280;29616;51.950;8.572;2023-09-12T02:03:41;99722.78;;;21.19;100.00
7441;BME280;29616;51.950;8.572;2023-09-12T02:06:12;99693.94;;;20.95;100.00
7441;BME280;29616;51.950;8.572;2023-09-12T02:08:42;99720.47;;;21.16;100.00
7441;BME280;29616;51.950;8.572;2023-09-12T02:11:14;99730.97;;;21.14;100.00
7441;BME280;29616;51.950;8.572;2023-09-12T02:13:45;99724.63;;;21.07;100.00
7441;BME280;29616;51.950;8.572;2023-09-12T02:16:15;99728.06;;;21.02;100.00
7441;BME280;29616;51.950;8.572;2023-09-12T02:18:45;99738.78;;;20.99;100.00
7441;BME280;29616;51.950;8.572;2023-09-12T02:21:16;99722.31;;;20.79;100.00
7441;BME280;29616;51.950;8.572;2023-09-12T02:23:46;99765.09;;;20.96;100.00
7441;BME280;29616;51.950;8.572;2023-09-12T02:26:16;99757.44;;;20.92;100.00
7441;BME280;29616;51.950;8.572;2023-09-12T02:28:47;99798.34;;;21.03;100.00
7441;BME280;29616;51.950;8.572;2023-09-12T02:31:16;99867.44;;;21.24;100.00
7441;BME280;29616;51.950;8.572;2023-09-12T02:33:47;99871.03;;;21.06;100.00
7441;BME280;29616;51.950;8.572;2023-09-12T02:36:18;99886.63;;;21.07;100.00
7441;BME280;29616;51.950;8.572;2023-09-12T02:38:47;99835.31;;;20.79;100.00
7441;BME280;29616;51.950;8.572;2023-09-12T02:41:19;99860.41;;;20.97;100.00
7441;BME280;29616;51.950;8.572;2023-09-12T02:43:49;99855.06;;;20.95;100.00
7441;BME280;29616;51.950;8.572;2023-09-12T02:46:20;99822.34;;;20.97;100.00
7441;BME280;29616;51.950;8.572;2023-09-12T02:48:50;99774.78;;;20.87;100.00
7441;BME280;29616;51.950;8.572;2023-09-12T02:51:21;99734.09;;;20.75;100.00
7441;BME280;29616;51.950;8.572;2023-09-12T02:53:53;99730.59;;;20.86;100.00
7441;BME280;29616;51.950;8.572;2023-09-12T02:56:24;99728.91;;;21.03;100.00
7441;BME280;29616;51.950;8.572;2023-09-12T02:58:55;99687.38;;;20.90;100.00
7441;BME280;29616;51.950;8.572;2023-09-12T03:01:25;99687.09;;;20.98;100.00
7441;BME280;29616;51.950;8.572;2023-09-12T03:03:57;99669.97;;;21.01;100.00
7441;BME280;29616;51.950;8.572;2023-09-12T03:06:26;99661.72;;;20.94;100.00
7441;BME280;29616;51.950;8.572;2023-09-12T03:08:55;99675.28;;;21.02;100.00
7441;BME280;29616;51.950;8.572;2023-09-12T03:11:26;99678.44;;;21.06;100.00
7441;BME280;29616;51.950;8.572;2023-09-12T03:13:59;99676.38;;;21.01;100.00
7441;BME280;29616;51.950;8.572;2023-09-12T03:16:28;99655.97;;;20.89;100.00
7441;BME280;29616;51.950;8.572;2023-09-12T03:18:59;99655.31;;;20.94;100.00
7441;BME280;29616;51.950;8.572;2023-09-12T03:21:31;99662.25;;;21.03;100.00
7441;BME280;29616;51.950;8.572;2023-09-12T03:24:05;99642.03;;;20.78;100.00
7441;BME280;29616;51.950;8.572;2023-09-12T03:26:35;99668.34;;;20.93;100.00
7441;BME280;29616;51.950;8.572;2023-09-12T03:29:09;99695.81;;;21.01;100.00
7441;BME280;29616;51.950;8.572;2023-09-12T03:31:39;99684.75;;;20.95;100.00
7441;BME280;29616;51.950;8.572;2023-09-12T03:34:12;99693.38;;;20.87;100.00
7441;BME280;29616;51.950;8.572;2023-09-12T03:36:41;99709.88;;;20.82;100.00
7441;BME280;29616;51.950;8.572;2023-09-12T03:39:11;99710.41;;;20.72;100.00
7441;BME280;29616;51.950;8.572;2023-09-12T03:41:42;99731.53;;;20.73;100.00
7441;BME280;29616;51.950;8.572;2023-09-12T03:44:12;99749.69;;;20.76;100.00
7441;BME280;29616;51.950;8.572;2023-09-12T03:46:43;99720.47;;;20.48;100.00
7441;BME280;29616;51.950;8.572;2023-09-12T03:49:13;99790.78;;;20.67;100.00
7441;BME280;29616;51.950;8.572;2023-09-12T03:51:42;99810.38;;;20.72;100.00
7441;BME280;29616;51.950;8.572;2023-09-12T03:54:12;99808.97;;;20.88;100.00
7441;BME280;29616;51.950;8.572;2023-09-12T03:56:44;99831.19;;;20.88;100.00
7441;BME280;29616;51.950;8.572;2023-09-12T03:59:15;99820.81;;;21.01;100.00
7441;BME280;29616;51.950;8.572;2023-09-12T04:01:46;99811.88;;;20.99;100.00
7441;BME280;29616;51.950;8.572;2023-09-12T04:04:17;99776.31;;;21.08;100.00
7441;BME280;29616;51.950;8.572;2023-09-12T04:06:46;99741.25;;;20.89;100.00
7441;BME280;29616;51.950;8.572;2023-09-12T04:09:17;99739.66;;;20.99;100.00
7441;BME280;29616;51.950;8.572;2023-09-12T04:11:47;99754.16;;;21.01;100.00
7441;BME280;29616;51.950;8.572;2023-09-12T04:14:22;99713.75;;;20.81;100.00
7441;BME280;29616;51.950;8.572;2023-09-12T04:16:51;99701.25;;;20.72;100.00
7441;BME280;29616;51.950;8.572;2023-09-12T04:19:22;99730.13;;;20.89;100.00
7441;BME280;29616;51.950;8.572;2023-09-12T04:21:52;99713.75;;;20.81;100.00
7441;BME280;29616;51.950;8.572;2023-09-12T04:24:22;99750.66;;;20.88;100.00
7441;BME280;29616;51.950;8.572;2023-09-12T04:26:53;99756.06;;;21.01;100.00
7441;BME280;29616;51.950;8.572;2023-09-12T04:29:24;99772.28;;;21.04;100.00
7441;BME280;29616;51.950;8.572;2023-09-12T04:31:55;99771.22;;;21.05;100.00
7441;BME280;29616;51.950;8.572;2023-09-12T04:34:29;99786.19;;;21.04;100.00
7441;BME280;29616;51.950;8.572;2023-09-12T04:36:59;99793.41;;;21.11;100.00
7441;BME280;29616;51.950;8.572;2023-09-12T04:39:31;99771.22;;;21.05;100.00
7441;BME280;29616;51.950;8.572;2023-09-12T04:42:02;99752.69;;;20.99;100.00
7441;BME280;29616;51.950;8.572;2023-09-12T04:44:36;99780.19;;;21.07;100.00
7441;BME280;29616;51.950;8.572;2023-09-12T04:47:07;99784.25;;;21.04;100.00
7441;BME280;29616;51.950;8.572;2023-09-12T04:49:38;99797.91;;;21.06;100.00
7441;BME280;29616;51.950;8.572;2023-09-12T04:52:08;99819.97;;;21.01;100.00
7441;BME280;29616;51.950;8.572;2023-09-12T04:54:36;99794.41;;;20.92;100.00
7441;BME280;29616;51.950;8.572;2023-09-12T04:57:05;99776.19;;;20.72;100.00
7441;BME280;29616;51.950;8.572;2023-09-12T04:59:36;99800.56;;;20.70;100.00
7441;BME280;29616;51.950;8.572;2023-09-12T05:02:07;99795.47;;;20.67;100.00
7441;BME280;29616;51.950;8.572;2023-09-12T05:04:37;99771.88;;;20.51;100.00
7441;BME280;29616;51.950;8.572;2023-09-12T05:07:08;99781.97;;;20.45;100.00
7441;BME280;29616;51.950;8.572;2023-09-12T05:09:39;99770.16;;;20.19;100.00
7441;BME280;29616;51.950;8.572;2023-09-12T05:12:10;99776.22;;;19.96;100.00
7441;BME280;29616;51.950;8.572;2023-09-12T05:14:42;99766.31;;;19.75;100.00
7441;BME280;29616;51.950;8.572;2023-09-12T05:17:12;99776.41;;;19.63;100.00
7441;BME280;29616;51.950;8.572;2023-09-12T05:19:41;99769.81;;;19.51;100.00
7441;BME280;29616;51.950;8.572;2023-09-12T05:22:11;99762.81;;;19.35;100.00
7441;BME280;29616;51.950;8.572;2023-09-12T05:24:41;99733.44;;;19.21;100.00
7441;BME280;29616;51.950;8.572;2023-09-12T05:27:13;99722.63;;;19.13;100.00
7441;BME280;29616;51.950;8.572;2023-09-12T05:29:44;99720.06;;;18.99;100.00
7441;BME280;29616;51.950;8.572;2023-09-12T05:32:13;99725.38;;;19.00;100.00
7441;BME280;29616;51.950;8.572;2023-09-12T05:34:46;99719.44;;;18.90;100.00
7441;BME280;29616;51.950;8.572;2023-09-12T05:37:31;99710.97;;;18.79;100.00
7441;BME280;29616;51.950;8.572;2023-09-12T05:40:07;99735.88;;;18.79;100.00
7441;BME280;29616;51.950;8.572;2023-09-12T05:42:39;99721.16;;;18.85;100.00
7441;BME280;29616;51.950;8.572;2023-09-12T05:45:11;99703.25;;;18.87;100.00
7441;BME280;29616;51.950;8.572;2023-09-12T05:47:44;99699.44;;;18.82;100.00
7441;BME280;29616;51.950;8.572;2023-09-12T05:50:14;99715.00;;;18.83;100.00
7441;BME280;29616;51.950;8.572;2023-09-12T05:52:46;99711.38;;;18.89;100.00
7441;BME280;29616;51.950;8.572;2023-09-12T05:55:22;99738.19;;;19.01;100.00
7441;BME280;29616;51.950;8.572;2023-09-12T05:57:51;99727.31;;;18.93;100.00
7441;BME280;29616;51.950;8.572;2023-09-12T06:00:24;99695.63;;;18.89;100.00
7441;BME280;29616;51.950;8.572;2023-09-12T06:02:53;99685.81;;;18.87;100.00
7441;BME280;29616;51.950;8.572;2023-09-12T06:05:25;99671.09;;;18.93;100.00
7441;BME280;29616;51.950;8.572;2023-09-12T06:07:55;99654.09;;;18.83;100.00
7441;BME280;29616;51.950;8.572;2023-09-12T06:10:27;99655.75;;;18.97;100.00
7441;BME280;29616;51.950;8.572;2023-09-12T06:12:57;99658.50;;;19.03;100.00
7441;BME280;29616;51.950;8.572;2023-09-12T06:15:29;99683.59;;;19.15;100.00
7441;BME280;29616;51.950;8.572;2023-09-12T06:17:58;99682.94;;;19.19;100.00
7441;BME280;29616;51.950;8.572;2023-09-12T06:20:29;99698.06;;;19.23;100.00
7441;BME280;29616;51.950;8.572;2023-09-12T06:23:00;99676.78;;;19.17;100.00
7441;BME280;29616;51.950;8.572;2023-09-12T06:25:32;99681.69;;;19.15;100.00
7441;BME280;29616;51.950;8.572;2023-09-12T06:28:08;99688.72;;;19.18;100.00
7441;BME280;29616;51.950;8.572;2023-09-12T06:30:39;99675.25;;;19.21;100.00
7441;BME280;29616;51.950;8.572;2023-09-12T06:33:10;99675.00;;;19.29;100.00
7441;BME280;29616;51.950;8.572;2023-09-12T06:35:43;99671.63;;;19.27;100.00
7441;BME280;29616;51.950;8.572;2023-09-12T06:38:21;99658.81;;;19.33;100.00
7441;BME280;29616;51.950;8.572;2023-09-12T06:40:52;99672.69;;;19.40;100.00
7441;BME280;29616;51.950;8.572;2023-09-12T06:43:25;99678.44;;;19.38;100.00
7441;BME280;29616;51.950;8.572;2023-09-12T06:45:56;99679.91;;;19.34;100.00
7441;BME280;29616;51.950;8.572;2023-09-12T06:48:27;99697.38;;;19.41;100.00
7441;BME280;29616;51.950;8.572;2023-09-12T06:50:56;99718.47;;;19.35;100.00
7441;BME280;29616;51.950;8.572;2023-09-12T06:53:31;99732.13;;;19.37;100.00
7441;BME280;29616;51.950;8.572;2023-09-12T06:56:03;99742.78;;;19.33;100.00
7441;BME280;29616;51.950;8.572;2023-09-12T06:58:34;99751.75;;;19.29;100.00
7441;BME280;29616;51.950;8.572;2023-09-12T07:01:10;99734.28;;;19.28;100.00
7441;BME280;29616;51.950;8.572;2023-09-12T07:03:41;99738.97;;;19.34;100.00
7441;BME280;29616;51.950;8.572;2023-09-12T07:06:12;99742.78;;;19.33;100.00
7441;BME280;29616;51.950;8.572;2023-09-12T07:08:42;99729.56;;;19.35;100.00
7441;BME280;29616;51.950;8.572;2023-09-12T07:11:17;99723.16;;;19.35;100.00
7441;BME280;29616;51.950;8.572;2023-09-12T07:13:47;99734.03;;;19.36;100.00
7441;BME280;29616;51.950;8.572;2023-09-12T07:16:22;99757.72;;;19.39;100.00
7441;BME280;29616;51.950;8.572;2023-09-12T07:18:52;99773.91;;;19.29;100.00
7441;BME280;29616;51.950;8.572;2023-09-12T07:21:29;99803.34;;;19.23;100.00
7441;BME280;29616;51.950;8.572;2023-09-12T07:24:02;99812.72;;;19.09;100.00
7441;BME280;29616;51.950;8.572;2023-09-12T07:26:32;99803.13;;;18.92;100.00
7441;BME280;29616;51.950;8.572;2023-09-12T07:29:02;99799.53;;;18.72;100.00
7441;BME280;29616;51.950;8.572;2023-09-12T07:31:38;99785.91;;;18.57;100.00
7441;BME280;29616;51.950;8.572;2023-09-12T07:34:09;99786.31;;;18.48;100.00
7441;BME280;29616;51.950;8.572;2023-09-12T07:36:40;99784.19;;;18.50;100.00
7441;BME280;29616;51.950;8.572;2023-09-12T07:39:12;99757.97;;;18.46;100.00
7441;BME280;29616;51.950;8.572;2023-09-12T07:41:43;99739.44;;;18.40;100.00
7441;BME280;29616;51.950;8.572;2023-09-12T07:44:13;99749.91;;;18.64;100.00
7441;BME280;29616;51.950;8.572;2023-09-12T07:46:46;99762.03;;;18.63;100.00
7441;BME280;29616;51.950;8.572;2023-09-12T07:49:15;99790.16;;;18.60;100.00
7441;BME280;29616;51.950;8.572;2023-09-12T07:51:46;99778.03;;;18.61;100.00
7441;BME280;29616;51.950;8.572;2023-09-12T07:54:15;99775.25;;;18.48;100.00
7441;BME280;29616;51.950;8.572;2023-09-12T07:56:46;99818.25;;;18.57;100.00
7441;BME280;29616;51.950;8.572;2023-09-12T07:59:24;99812.31;;;18.60;100.00
7441;BME280;29616;51.950;8.572;2023-09-12T08:01:56;99799.53;;;18.65;100.00
7441;BME280;29616;51.950;8.572;2023-09-12T08:04:26;99818.47;;;18.68;100.00
7441;BME280;29616;51.950;8.572;2023-09-12T08:06:56;99820.41;;;18.68;100.00
7441;BME280;29616;51.950;8.572;2023-09-12T08:09:49;99860.84;;;18.69;100.00
7441;BME280;29616;51.950;8.572;2023-09-12T08:12:25;99863.16;;;18.52;100.00
7441;BME280;29616;51.950;8.572;2023-09-12T08:14:58;99880.00;;;18.64;100.00
7441;BME280;29616;51.950;8.572;2023-09-12T08:17:32;99921.75;;;18.62;100.00
7441;BME280;29616;51.950;8.572;2023-09-12T08:20:02;99926.88;;;18.65;100.00
7441;BME280;29616;51.950;8.572;2023-09-12T08:22:30;99907.69;;;18.64;100.00
7441;BME280;29616;51.950;8.572;2023-09-12T08:25:00;99894.88;;;18.63;100.00
7441;BME280;29616;51.950;8.572;2023-09-12T08:27:30;99899.56;;;18.49;100.00
7441;BME280;29616;51.950;8.572;2023-09-12T08:30:01;99951.09;;;18.63;100.00
7441;BME280;29616;51.950;8.572;2023-09-12T08:32:32;99943.84;;;18.56;100.00
7441;BME280;29616;51.950;8.572;2023-09-12T08:35:04;99912.78;;;18.60;100.00
7441;BME280;29616;51.950;8.572;2023-09-12T08:37:34;99908.31;;;18.59;100.00
7441;BME280;29616;51.950;8.572;2023-09-12T08:40:05;99895.13;;;18.55;100.00
7441;BME280;29616;51.950;8.572;2023-09-12T08:42:40;99916.63;;;18.66;100.00
7441;BME280;29616;51.950;8.572;2023-09-12T08:45:13;99957.72;;;18.69;100.00
7441;BME280;29616;51.950;8.572;2023-09-12T08:47:54;99959.63;;;18.68;100.00
7441;BME280;29616;51.950;8.572;2023-09-12T08:50:27;99948.97;;;18.59;100.00
7441;BME280;29616;51.950;8.572;2023-09-12T08:53:05;99926.00;;;18.65;100.00
7441;BME280;29616;51.950;8.572;2023-09-12T08:55:35;99885.09;;;18.54;100.00
7441;BME280;29616;51.950;8.572;2023-09-12T08:58:05;99880.38;;;18.48;100.00
7441;BME280;29616;51.950;8.572;2023-09-12T09:00:44;99892.50;;;18.47;100.00
7441;BME280;29616;51.950;8.572;2023-09-12T09:03:18;99926.81;;;18.59;100.00
7441;BME280;29616;51.950;8.572;2023-09-12T09:05:53;99895.75;;;18.63;100.00
7441;BME280;29616;51.950;8.572;2023-09-12T09:08:26;99872.34;;;18.66;100.00
7441;BME280;29616;51.950;8.572;2023-09-12T09:11:01;99887.47;;;18.70;100.00
7441;BME280;29616;51.950;8.572;2023-09-12T09:13:32;99909.41;;;18.65;100.00
7441;BME280;29616;51.950;8.572;2023-09-12T09:16:13;99875.28;;;18.58;100.00
7441;BME280;29616;51.950;8.572;2023-09-12T09:19:00;99816.50;;;18.43;100.00
7441;BME280;29616;51.950;8.572;2023-09-12T09:21:39;99864.44;;;18.63;100.00
7441;BME280;29616;51.950;8.572;2023-09-12T09:24:16;99864.44;;;18.63;100.00
7441;BME280;29616;51.950;8.572;2023-09-12T09:26:50;99853.63;;;18.68;100.00
7441;BME280;29616;51.950;8.572;2023-09-12T09:29:28;99875.50;;;18.63;100.00
7441;BME280;29616;51.950;8.572;2023-09-12T09:32:01;99897.47;;;18.71;100.00
7441;BME280;29616;51.950;8.572;2023-09-12T09:34:39;99891.50;;;18.67;100.00
7441;BME280;29616;51.950;8.572;2023-09-12T09:37:11;99851.91;;;18.67;100.00
7441;BME280;29616;51.950;8.572;2023-09-12T09:39:46;99873.63;;;18.76;100.00
7441;BME280;29616;51.950;8.572;2023-09-12T09:42:23;99870.25;;;18.81;100.00
7441;BME280;29616;51.950;8.572;2023-09-12T09:44:54;99876.63;;;18.75;100.00
7441;BME280;29616;51.950;8.572;2023-09-12T09:47:26;99871.72;;;18.77;100.00
7441;BME280;29616;51.950;8.572;2023-09-12T09:49:59;99835.94;;;18.69;100.00
7441;BME280;29616;51.950;8.572;2023-09-12T09:52:32;99843.38;;;18.82;100.00
7441;BME280;29616;51.950;8.572;2023-09-12T09:55:07;99844.69;;;18.86;100.00
7441;BME280;29616;51.950;8.572;2023-09-12T09:57:38;99869.38;;;18.87;100.00
7441;BME280;29616;51.950;8.572;2023-09-12T10:00:08;99859.59;;;18.91;100.00
7441;BME280;29616;51.950;8.572;2023-09-12T10:02:45;99837.44;;;18.98;100.00
7441;BME280;29616;51.950;8.572;2023-09-12T10:05:20;99855.31;;;18.95;100.00
7441;BME280;29616;51.950;8.572;2023-09-12T10:07:55;99903.69;;;18.93;100.00
7441;BME280;29616;51.950;8.572;2023-09-12T10:10:26;99907.72;;;18.90;100.00
7441;BME280;29616;51.950;8.572;2023-09-12T10:12:59;99871.72;;;18.90;100.00
7441;BME280;29616;51.950;8.572;2023-09-12T10:15:30;99878.78;;;18.86;100.00
7441;BME280;29616;51.950;8.572;2023-09-12T10:18:08;99857.88;;;18.90;100.00
7441;BME280;29616;51.950;8.572;2023-09-12T10:20:50;99868.09;;;18.83;100.00
7441;BME280;29616;51.950;8.572;2023-09-12T10:23:41;99910.91;;;18.81;100.00
7441;BME280;29616;51.950;8.572;2023-09-12T10:26:14;99938.19;;;18.84;100.00
7441;BME280;29616;51.950;8.572;2023-09-12T10:28:50;99923.03;;;18.73;100.00
7441;BME280;29616;51.950;8.572;2023-09-12T10:31:20;99924.72;;;18.74;100.00
7441;BME280;29616;51.950;8.572;2023-09-12T10:33:53;99922.38;;;18.71;100.00
7441;BME280;29616;51.950;8.572;2023-09-12T10:36:32;99864.25;;;18.71;100.00
7441;BME280;29616;51.950;8.572;2023-09-12T10:39:07;99870.88;;;18.70;100.00
7441;BME280;29616;51.950;8.572;2023-09-12T10:41:39;99854.44;;;18.68;100.00
7441;BME280;29616;51.950;8.572;2023-09-12T10:44:16;99839.97;;;18.60;100.00
7441;BME280;29616;51.950;8.572;2023-09-12T10:46:46;99846.38;;;18.67;100.00
7441;BME280;29616;51.950;8.572;2023-09-12T10:49:20;99852.78;;;18.81;100.00
7441;BME280;29616;51.950;8.572;2023-09-12T10:51:51;99840.84;;;18.80;100.00
7441;BME280;29616;51.950;8.572;2023-09-12T10:54:38;99851.94;;;18.87;100.00
7441;BME280;29616;51.950;8.572;2023-09-12T10:57:11;99854.03;;;18.98;100.00
7441;BME280;29616;51.950;8.572;2023-09-12T11:00:10;99839.75;;;19.14;100.00
7441;BME280;29616;51.950;8.572;2023-09-12T11:02:42;99845.94;;;19.22;100.00
7441;BME280;29616;51.950;8.572;2023-09-12T11:05:37;99838.94;;;19.40;100.00
7441;BME280;29616;51.950;8.572;2023-09-12T11:08:11;99842.75;;;19.45;100.00
7441;BME280;29616;51.950;8.572;2023-09-12T11:10:40;99850.19;;;19.51;100.00
7441;BME280;29616;51.950;8.572;2023-09-12T11:13:17;99840.72;;;19.85;100.00
7441;BME280;29616;51.950;8.572;2023-09-12T11:16:12;99841.91;;;20.09;100.00
7441;BME280;29616;51.950;8.572;2023-09-12T11:19:12;99838.00;;;20.29;100.00
7441;BME280;29616;51.950;8.572;2023-09-12T11:21:43;99842.81;;;20.78;100.00
7441;BME280;29616;51.950;8.572;2023-09-12T11:24:16;99828.63;;;21.18;100.00
7441;BME280;29616;51.950;8.572;2023-09-12T11:27:07;99829.19;;;21.26;100.00
7441;BME280;29616;51.950;8.572;2023-09-12T11:29:39;99827.59;;;21.55;100.00
7441;BME280;29616;51.950;8.572;2023-09-12T11:32:26;99821.66;;;21.69;100.00
7441;BME280;29616;51.950;8.572;2023-09-12T11:34:57;99817.88;;;22.18;100.00
7441;BME280;29616;51.950;8.572;2023-09-12T11:37:29;99819.34;;;22.21;100.00
7441;BME280;29616;51.950;8.572;2023-09-12T11:40:17;99829.75;;;22.55;100.00
7441;BME280;29616;51.950;8.572;2023-09-12T11:42:49;99829.06;;;23.13;100.00
7441;BME280;29616;51.950;8.572;2023-09-12T11:45:20;99823.28;;;23.61;100.00
7441;BME280;29616;51.950;8.572;2023-09-12T11:47:52;99817.78;;;24.00;100.00
7441;BME280;29616;51.950;8.572;2023-09-12T11:50:29;99823.63;;;24.67;100.00
7441;BME280;29616;51.950;8.572;2023-09-12T11:53:14;99820.38;;;25.03;100.00
7441;BME280;29616;51.950;8.572;2023-09-12T11:55:46;99805.72;;;26.06;100.00
7441;BME280;29616;51.950;8.572;2023-09-12T11:58:18;99816.41;;;26.53;100.00
7441;BME280;29616;51.950;8.572;2023-09-12T12:00:52;99812.38;;;26.70;100.00
7441;BME280;29616;51.950;8.572;2023-09-12T12:03:24;99832.66;;;26.51;100.00
7441;BME280;29616;51.950;8.572;2023-09-12T12:05:55;99830.19;;;26.59;100.00
7441;BME280;29616;51.950;8.572;2023-09-12T12:08:26;99833.38;;;26.19;100.00
7441;BME280;29616;51.950;8.572;2023-09-12T12:11:02;99834.25;;;26.03;100.00
7441;BME280;29616;51.950;8.572;2023-09-12T12:13:34;99829.19;;;26.22;100.00
7441;BME280;29616;51.950;8.572;2023-09-12T12:16:15;99832.91;;;26.76;100.00
7441;BME280;29616;51.950;8.572;2023-09-12T12:18:51;99827.53;;;26.96;100.00
7441;BME280;29616;51.950;8.572;2023-09-12T12:21:24;99815.09;;;27.45;100.00
7441;BME280;29616;51.950;8.572;2023-09-12T12:24:02;99818.50;;;27.52;100.00
7441;BME280;29616;51.950;8.572;2023-09-12T12:26:36;99815.03;;;27.82;100.00
7441;BME280;29616;51.950;8.572;2023-09-12T12:29:07;99806.81;;;28.17;100.00
7441;BME280;29616;51.950;8.572;2023-09-12T12:31:39;99805.94;;;28.07;100.00
7441;BME280;29616;51.950;8.572;2023-09-12T12:34:08;99807.84;;;28.01;100.00
7441;BME280;29616;51.950;8.572;2023-09-12T12:36:58;99805.53;;;28.50;100.00
7441;BME280;29616;51.950;8.572;2023-09-12T12:39:27;99801.84;;;27.83;100.00
7441;BME280;29616;51.950;8.572;2023-09-12T12:42:00;99818.75;;;27.14;100.00
7441;BME280;29616;51.950;8.572;2023-09-12T12:44:35;99804.13;;;27.12;100.00
7441;BME280;29616;51.950;8.572;2023-09-12T12:47:10;99802.19;;;27.49;100.00
7441;BME280;29616;51.950;8.572;2023-09-12T12:49:40;99810.69;;;28.06;100.00
7441;BME280;29616;51.950;8.572;2023-09-12T12:52:10;99787.63;;;27.52;100.00
7441;BME280;29616;51.950;8.572;2023-09-12T12:54:42;99802.78;;;27.51;100.00
7441;BME280;29616;51.950;8.572;2023-09-12T12:57:19;99793.44;;;28.40;100.00
7441;BME280;29616;51.950;8.572;2023-09-12T12:59:49;99807.53;;;28.60;100.00
7441;BME280;29616;51.950;8.572;2023-09-12T13:02:19;99809.31;;;29.11;100.00
7441;BME280;29616;51.950;8.572;2023-09-12T13:04:50;99792.16;;;29.03;100.00
7441;BME280;29616;51.950;8.572;2023-09-12T13:07:22;99794.97;;;29.08;100.00
7441;BME280;29616;51.950;8.572;2023-09-12T13:09:57;99786.47;;;27.95;100.00
7441;BME280;29616;51.950;8.572;2023-09-12T13:12:27;99781.84;;;27.32;100.00
7441;BME280;29616;51.950;8.572;2023-09-12T13:15:01;99785.25;;;27.39;100.00
7441;BME280;29616;51.950;8.572;2023-09-12T13:17:31;99789.13;;;27.33;100.00
7441;BME280;29616;51.950;8.572;2023-09-12T13:20:05;99776.28;;;27.79;100.00
7441;BME280;29616;51.950;8.572;2023-09-12T13:22:37;99783.53;;;27.33;100.00
7441;BME280;29616;51.950;8.572;2023-09-12T13:25:09;99781.09;;;27.10;100.00
7441;BME280;29616;51.950;8.572;2023-09-12T13:27:42;99773.25;;;27.44;100.00
7441;BME280;29616;51.950;8.572;2023-09-12T13:30:12;99779.38;;;27.78;100.00